Time;durP1;ratioP1;P1;durP2;ratioP2;P2;SDS_P1;SDS_P2;PMS_P1;PMS_P2;Temp;Humidity;BMP_temperature;BMP_pressure;BME280_temperature;BME280_humidity;BME280_pressure;Samples;Min_cycle;Max_cycle;Signal;HPM_P1;HPM_P2
2023/04/18 00:01:48;;;;;;;8.98;6.65;;;6.90;99.90;;;;;;5045526;28;20061;-36
2023/04/18 00:04:16;;;;;;;8.63;7.53;;;6.90;99.90;;;;;;5044840;28;20041;-36
2023/04/18 00:06:46;;;;;;;9.73;7.40;;;7.00;99.90;;;;;;5044568;28;20048;-37
2023/04/18 00:09:13;;;;;;;9.15;7.40;;;7.00;99.90;;;;;;5045640;28;20060;-36
2023/04/18 00:11:41;;;;;;;8.10;7.30;;;7.00;99.90;;;;;;5044891;28;20513;-37
2023/04/18 00:14:09;;;;;;;12.98;7.70;;;7.00;99.90;;;;;;5044524;28;20053;-36
2023/04/18 00:16:37;;;;;;;8.68;7.13;;;7.00;99.90;;;;;;5039391;28;20059;-36
2023/04/18 00:19:05;;;;;;;7.80;6.65;;;7.00;99.90;;;;;;5043699;28;20075;-37
2023/04/18 00:21:33;;;;;;;9.10;7.80;;;7.00;99.90;;;;;;5044479;28;20349;-36
2023/04/18 00:24:01;;;;;;;10.43;7.90;;;7.00;99.90;;;;;;5044512;28;20045;-36
2023/04/18 00:26:28;;;;;;;7.20;6.47;;;7.00;99.90;;;;;;5039680;28;20041;-37
2023/04/18 00:28:57;;;;;;;11.75;7.10;;;7.00;99.90;;;;;;5059689;28;20056;-36
2023/04/18 00:31:24;;;;;;;7.60;6.25;;;7.00;99.90;;;;;;5044470;28;20052;-37
2023/04/18 00:33:52;;;;;;;7.72;6.47;;;6.90;99.90;;;;;;5043098;28;20057;-36
2023/04/18 00:36:23;;;;;;;7.50;6.15;;;6.90;99.90;;;;;;5044166;28;20053;-35
2023/04/18 00:38:50;;;;;;;10.65;6.82;;;6.90;99.90;;;;;;5042478;28;20072;-35
2023/04/18 00:41:20;;;;;;;8.40;6.88;;;6.90;99.90;;;;;;5044207;28;20052;-35
2023/04/18 00:43:47;;;;;;;8.57;6.78;;;6.90;99.90;;;;;;5044193;28;20052;-36
2023/04/18 00:46:15;;;;;;;8.15;6.55;;;6.90;99.90;;;;;;5039895;28;20071;-37
2023/04/18 00:48:43;;;;;;;10.13;6.35;;;6.90;99.90;;;;;;5044408;28;20061;-36
2023/04/18 00:51:10;;;;;;;9.63;6.00;;;6.90;99.90;;;;;;5042589;28;20060;-36
2023/04/18 00:53:41;;;;;;;12.35;7.55;;;6.90;99.90;;;;;;5043841;28;20536;-36
2023/04/18 00:56:08;;;;;;;8.30;6.97;;;6.90;99.90;;;;;;5044109;28;20057;-37
2023/04/18 00:58:36;;;;;;;7.05;6.38;;;6.90;99.90;;;;;;5044493;28;20497;-36
2023/04/18 01:01:04;;;;;;;8.55;6.55;;;6.90;99.90;;;;;;5044958;28;20056;-36
2023/04/18 01:03:33;;;;;;;9.50;6.88;;;7.00;99.90;;;;;;5042827;28;20045;-38
2023/04/18 01:06:01;;;;;;;9.15;7.80;;;7.00;99.90;;;;;;5042924;28;20083;-37
2023/04/18 01:08:29;;;;;;;8.88;7.22;;;7.00;99.90;;;;;;5045082;28;20308;-36
2023/04/18 01:10:57;;;;;;;7.65;6.72;;;6.90;99.90;;;;;;5042918;28;20068;-37
2023/04/18 01:13:25;;;;;;;11.32;8.75;;;6.90;99.90;;;;;;5044598;28;20053;-36
2023/04/18 01:15:54;;;;;;;9.45;8.07;;;7.00;99.90;;;;;;5044141;28;20513;-36
2023/04/18 01:18:23;;;;;;;8.50;7.65;;;7.00;99.90;;;;;;5044138;28;20048;-36
2023/04/18 01:20:55;;;;;;;10.07;7.57;;;6.90;99.90;;;;;;5043016;28;20053;-36
2023/04/18 01:23:23;;;;;;;8.10;6.53;;;7.00;99.90;;;;;;5043997;28;20064;-37
2023/04/18 01:25:50;;;;;;;9.23;7.25;;;7.00;99.90;;;;;;5043360;28;20053;-36
2023/04/18 01:28:22;;;;;;;10.88;7.82;;;7.00;99.90;;;;;;5043948;28;20099;-37
2023/04/18 01:30:50;;;;;;;7.03;6.38;;;7.00;99.90;;;;;;5043561;28;20045;-36
2023/04/18 01:33:17;;;;;;;9.80;6.93;;;7.00;99.90;;;;;;5044331;28;20045;-46
2023/04/18 01:35:46;;;;;;;10.23;7.68;;;7.00;99.90;;;;;;5042706;28;20577;-46
2023/04/18 01:38:14;;;;;;;14.98;7.40;;;7.00;99.90;;;;;;5044011;28;20076;-46
2023/04/18 01:40:41;;;;;;;8.23;7.32;;;7.00;99.90;;;;;;5044136;28;20056;-47
2023/04/18 01:43:09;;;;;;;9.88;7.97;;;7.00;99.90;;;;;;5037547;28;20445;-47
2023/04/18 01:45:37;;;;;;;7.70;6.72;;;7.00;99.90;;;;;;5041763;28;20053;-46
2023/04/18 01:48:05;;;;;;;8.80;6.55;;;7.00;99.90;;;;;;5058349;28;20402;-47
2023/04/18 01:50:32;;;;;;;9.13;7.93;;;7.00;99.90;;;;;;5057315;28;20506;-47
2023/04/18 01:53:00;;;;;;;8.30;7.13;;;7.00;99.90;;;;;;5043208;28;20045;-46
2023/04/18 01:55:27;;;;;;;9.13;7.45;;;7.00;99.90;;;;;;5043251;28;20455;-46
2023/04/18 01:57:55;;;;;;;11.90;7.97;;;7.00;99.90;;;;;;5043671;28;20052;-46
2023/04/18 02:00:23;;;;;;;8.35;6.43;;;7.00;99.90;;;;;;5055029;28;20059;-47
2023/04/18 02:02:50;;;;;;;9.32;8.32;;;7.00;99.90;;;;;;5043881;28;20486;-47
2023/04/18 02:05:20;;;;;;;10.65;7.70;;;6.90;99.90;;;;;;5043045;28;20056;-47
2023/04/18 02:07:49;;;;;;;7.40;5.80;;;6.90;99.90;;;;;;5043274;28;20076;-47
2023/04/18 02:10:17;;;;;;;10.20;9.20;;;6.90;99.90;;;;;;5043113;28;20409;-47
2023/04/18 02:12:45;;;;;;;9.90;6.93;;;6.90;99.90;;;;;;5042728;28;20057;-46
2023/04/18 02:15:12;;;;;;;8.52;6.95;;;6.90;99.90;;;;;;5045375;28;20434;-47
2023/04/18 02:17:40;;;;;;;11.10;7.93;;;6.80;99.90;;;;;;5063003;28;20053;-47
2023/04/18 02:20:09;;;;;;;8.30;6.68;;;6.80;99.90;;;;;;5046239;28;20485;-47
2023/04/18 02:22:38;;;;;;;9.88;7.53;;;6.80;99.90;;;;;;5047230;28;20128;-47
2023/04/18 02:25:06;;;;;;;7.70;6.88;;;6.80;99.90;;;;;;5047676;28;20504;-47
2023/04/18 02:27:34;;;;;;;11.10;8.52;;;6.80;99.90;;;;;;5041131;28;20045;-47
2023/04/18 02:30:01;;;;;;;8.40;6.63;;;6.90;99.90;;;;;;5046225;28;20553;-47
2023/04/18 02:32:33;;;;;;;11.35;8.95;;;6.80;99.90;;;;;;5043734;28;20036;-47
2023/04/18 02:35:00;;;;;;;8.88;7.28;;;6.80;99.90;;;;;;5046225;28;20044;-46
2023/04/18 02:37:28;;;;;;;11.00;8.27;;;6.80;99.90;;;;;;5047654;28;20539;-46
2023/04/18 02:39:55;;;;;;;8.88;7.95;;;6.90;99.90;;;;;;5046071;28;20060;-47
2023/04/18 02:42:23;;;;;;;8.50;7.07;;;6.80;99.90;;;;;;5046552;28;20041;-47
2023/04/18 02:44:50;;;;;;;10.32;7.80;;;6.80;99.90;;;;;;5046869;28;20056;-47
2023/04/18 02:47:18;;;;;;;12.15;7.65;;;6.80;99.90;;;;;;5061562;28;20041;-47
2023/04/18 02:49:46;;;;;;;11.27;7.22;;;6.80;99.90;;;;;;5044922;28;20049;-47
2023/04/18 02:52:14;;;;;;;10.57;9.40;;;6.80;99.90;;;;;;5044407;28;20230;-47
2023/04/18 02:54:41;;;;;;;10.43;7.85;;;6.80;99.90;;;;;;5046476;28;20468;-46
2023/04/18 02:57:14;;;;;;;12.30;8.98;;;6.80;99.90;;;;;;5046227;28;20053;-49
2023/04/18 02:59:59;;;;;;;12.13;6.88;;;6.90;99.90;;;;;;5046272;28;20416;-47
2023/04/18 03:02:49;;;;;;;13.00;9.18;;;6.90;99.90;;;;;;5045182;28;20052;-46
2023/04/18 03:05:35;;;;;;;10.40;8.00;;;6.80;99.90;;;;;;5043852;28;20064;-46
2023/04/18 03:08:05;;;;;;;12.07;8.35;;;6.90;99.90;;;;;;5061103;28;20116;-47
2023/04/18 03:10:34;;;;;;;14.18;9.00;;;6.80;99.90;;;;;;5060841;28;20056;-47
2023/04/18 03:13:02;;;;;;;13.10;8.88;;;6.80;99.90;;;;;;5046249;28;20060;-47
2023/04/18 03:15:29;;;;;;;9.95;7.70;;;6.80;99.90;;;;;;5060571;28;20049;-47
2023/04/18 03:17:58;;;;;;;11.15;9.00;;;6.80;99.90;;;;;;5046857;28;20713;-46
2023/04/18 03:20:29;;;;;;;13.57;9.60;;;6.80;99.90;;;;;;5042626;28;20048;-47
2023/04/18 03:22:57;;;;;;;15.50;11.40;;;6.80;99.90;;;;;;5044380;28;20540;-47
2023/04/18 03:25:28;;;;;;;13.73;10.70;;;6.80;99.90;;;;;;5043972;28;20052;-47
2023/04/18 03:27:56;;;;;;;14.32;10.07;;;6.80;99.90;;;;;;5060269;28;20052;-47
2023/04/18 03:30:25;;;;;;;10.80;9.70;;;6.80;99.90;;;;;;5060497;28;20052;-47
2023/04/18 03:32:54;;;;;;;14.80;9.55;;;6.70;99.90;;;;;;5046147;28;20057;-47
2023/04/18 03:35:23;;;;;;;13.70;9.90;;;6.70;99.90;;;;;;5042816;28;20064;-46
2023/04/18 03:37:50;;;;;;;11.60;9.30;;;6.70;99.90;;;;;;5044454;28;20044;-46
2023/04/18 03:40:28;;;;;;;14.02;10.48;;;6.70;99.90;;;;;;5043484;28;20049;-47
2023/04/18 03:43:00;;;;;;;12.88;9.70;;;6.70;99.90;;;;;;5043987;28;20041;-46
2023/04/18 03:45:28;;;;;;;12.52;9.77;;;6.70;99.90;;;;;;5044006;28;20513;-47
2023/04/18 03:47:56;;;;;;;15.18;12.23;;;6.70;99.90;;;;;;5043716;28;20091;-47
2023/04/18 03:50:24;;;;;;;20.88;13.90;;;6.70;99.90;;;;;;5044274;28;20609;-46
2023/04/18 03:52:54;;;;;;;18.05;12.05;;;6.70;99.90;;;;;;5046282;28;20052;-47
2023/04/18 03:55:22;;;;;;;18.52;12.80;;;6.70;99.90;;;;;;5045665;28;20052;-46
2023/04/18 03:57:50;;;;;;;19.98;11.98;;;6.70;99.90;;;;;;5046276;28;20049;-46
2023/04/18 04:00:26;;;;;;;19.70;13.52;;;6.70;99.90;;;;;;5043077;28;20576;-47
2023/04/18 04:03:03;;;;;;;17.73;13.27;;;6.70;99.90;;;;;;5053714;28;20041;-46
2023/04/18 04:05:30;;;;;;;17.00;11.98;;;6.70;99.90;;;;;;5023002;28;20065;-46
2023/04/18 04:07:58;;;;;;;15.10;10.90;;;6.70;99.90;;;;;;5024634;28;20276;-47
2023/04/18 04:10:26;;;;;;;15.65;12.07;;;6.70;99.90;;;;;;5024522;28;20041;-46
2023/04/18 04:12:54;;;;;;;21.73;14.15;;;6.60;99.90;;;;;;5024763;28;20034;-47
2023/04/18 04:15:22;;;;;;;17.17;13.43;;;6.60;99.90;;;;;;5034242;28;20397;-47
2023/04/18 04:17:55;;;;;;;19.95;12.75;;;6.60;99.90;;;;;;5045860;28;20045;-47
2023/04/18 04:20:24;;;;;;;19.38;12.60;;;6.60;99.90;;;;;;5070638;28;20093;-47
2023/04/18 04:23:00;;;;;;;16.33;12.10;;;6.60;99.90;;;;;;5046254;28;20041;-47
2023/04/18 04:25:28;;;;;;;17.05;12.43;;;6.60;99.90;;;;;;5043290;28;20254;-47
2023/04/18 04:28:01;;;;;;;17.50;11.77;;;6.60;99.90;;;;;;5042809;28;20053;-46
2023/04/18 04:30:32;;;;;;;14.27;11.80;;;6.60;99.90;;;;;;5042443;28;20120;-46
2023/04/18 04:33:00;;;;;;;17.73;12.13;;;6.60;99.90;;;;;;5044940;28;20060;-47
2023/04/18 04:35:28;;;;;;;19.90;13.82;;;6.50;99.90;;;;;;5043217;28;20041;-47
2023/04/18 04:37:55;;;;;;;19.65;11.88;;;6.50;99.90;;;;;;5044918;28;20056;-47
2023/04/18 04:40:30;;;;;;;15.77;11.55;;;6.60;99.90;;;;;;5047681;28;20056;-47
2023/04/18 04:43:04;;;;;;;18.40;14.27;;;6.60;99.90;;;;;;5052761;28;20050;-47
2023/04/18 04:45:40;;;;;;;19.83;13.45;;;6.60;99.90;;;;;;5023952;28;20057;-47
2023/04/18 04:48:09;;;;;;;18.02;13.82;;;6.60;99.90;;;;;;5042554;28;20052;-47
2023/04/18 04:50:39;;;;;;;16.48;11.90;;;6.70;99.90;;;;;;5040951;28;20417;-47
2023/04/18 04:53:07;;;;;;;16.92;13.32;;;6.70;99.90;;;;;;5045455;28;20053;-47
2023/04/18 04:55:37;;;;;;;18.75;13.10;;;6.70;99.90;;;;;;5042716;28;20879;-46
2023/04/18 04:58:05;;;;;;;18.77;12.43;;;6.90;99.90;;;;;;5042876;28;20057;-47
2023/04/18 05:00:55;;;;;;;20.92;13.35;;;6.80;99.90;;;;;;5040745;28;20049;-47
2023/04/18 05:03:23;;;;;;;21.40;13.35;;;6.80;99.90;;;;;;5043085;28;20528;-47
2023/04/18 05:05:51;;;;;;;14.40;11.75;;;6.90;99.90;;;;;;5058466;28;20060;-46
2023/04/18 05:08:18;;;;;;;18.98;12.65;;;6.90;99.90;;;;;;5044788;28;20041;-46
2023/04/18 05:10:46;;;;;;;17.30;12.10;;;7.00;99.90;;;;;;5044649;28;20413;-46
2023/04/18 05:13:14;;;;;;;15.25;12.20;;;7.10;99.90;;;;;;5044598;28;20045;-47
2023/04/18 05:15:41;;;;;;;18.83;11.07;;;7.10;99.90;;;;;;5043984;28;20481;-47
2023/04/18 05:18:09;;;;;;;20.80;12.35;;;7.20;99.90;;;;;;5044620;28;20056;-47
2023/04/18 05:20:36;;;;;;;22.15;13.07;;;7.30;99.90;;;;;;5039179;28;20127;-47
2023/04/18 05:23:04;;;;;;;17.10;11.60;;;7.30;99.90;;;;;;5044453;28;20100;-47
2023/04/18 05:25:32;;;;;;;18.17;11.85;;;7.40;99.90;;;;;;5042345;28;20053;-47
2023/04/18 05:28:00;;;;;;;19.85;11.38;;;7.60;99.90;;;;;;5044329;28;20049;-46
2023/04/18 05:30:27;;;;;;;14.43;11.48;;;7.70;99.90;;;;;;5039685;28;20045;-46
2023/04/18 05:32:55;;;;;;;16.50;12.05;;;7.80;99.90;;;;;;5044163;28;20056;-47
2023/04/18 05:35:22;;;;;;;17.20;13.93;;;7.80;99.90;;;;;;5031415;28;20046;-46
2023/04/18 05:37:50;;;;;;;13.88;11.15;;;7.90;99.90;;;;;;5024829;28;20080;-47
2023/04/18 05:40:17;;;;;;;14.57;10.55;;;7.90;99.90;;;;;;5020076;28;20046;-47
2023/04/18 05:42:45;;;;;;;18.65;11.52;;;8.00;99.90;;;;;;5023069;28;20053;-46
2023/04/18 05:45:13;;;;;;;17.73;12.02;;;8.30;99.90;;;;;;5020246;28;20050;-46
2023/04/18 05:47:40;;;;;;;17.75;12.02;;;8.90;99.90;;;;;;5037351;28;20107;-47
2023/04/18 05:50:08;;;;;;;18.42;12.35;;;9.40;99.90;;;;;;5046780;28;20064;-46
2023/04/18 05:52:39;;;;;;;18.95;11.77;;;9.80;99.90;;;;;;5048093;28;20079;-47
2023/04/18 05:55:07;;;;;;;15.60;13.43;;;10.00;99.90;;;;;;5047553;28;20052;-46
2023/04/18 05:57:35;;;;;;;21.05;11.25;;;10.20;99.90;;;;;;5044885;28;20072;-47
2023/04/18 06:00:10;;;;;;;16.20;10.15;;;10.60;99.90;;;;;;5047874;28;20057;-47
2023/04/18 06:02:40;;;;;;;7.05;5.63;;;10.80;99.90;;;;;;5041495;28;20049;-46
2023/04/18 06:05:08;;;;;;;13.82;8.93;;;10.80;99.90;;;;;;5046934;28;20059;-47
2023/04/18 06:07:36;;;;;;;17.73;12.30;;;10.70;99.90;;;;;;5047126;28;20052;-47
2023/04/18 06:10:08;;;;;;;17.88;12.65;;;10.60;99.90;;;;;;5046807;28;20053;-47
2023/04/18 06:12:36;;;;;;;14.52;10.88;;;10.60;99.90;;;;;;5056698;28;20045;-46
2023/04/18 06:15:04;;;;;;;19.20;10.93;;;10.50;99.90;;;;;;5047388;28;20056;-46
2023/04/18 06:17:33;;;;;;;16.50;9.18;;;10.10;99.90;;;;;;5047979;28;20409;-47
2023/04/18 06:20:01;;;;;;;13.82;10.75;;;9.50;99.90;;;;;;5046142;28;20052;-47
2023/04/18 06:22:28;;;;;;;18.50;11.02;;;9.10;99.90;;;;;;5047394;28;20055;-47
2023/04/18 06:24:55;;;;;;;15.27;11.88;;;8.70;99.90;;;;;;5045590;28;20056;-47
2023/04/18 06:27:26;;;;;;;12.55;9.65;;;8.50;99.90;;;;;;5047014;28;20048;-47
2023/04/18 06:29:58;;;;;;;19.33;11.23;;;8.30;99.90;;;;;;5047184;28;20368;-47
2023/04/18 06:32:25;;;;;;;17.90;10.77;;;8.10;99.90;;;;;;5046179;28;20048;-47
2023/04/18 06:34:53;;;;;;;15.73;11.00;;;8.00;99.90;;;;;;5046369;28;20064;-47
2023/04/18 06:37:21;;;;;;;14.07;10.48;;;8.00;99.90;;;;;;5043639;28;20052;-46
2023/04/18 06:39:48;;;;;;;22.40;12.45;;;7.90;99.90;;;;;;5046199;28;20476;-46
2023/04/18 06:42:16;;;;;;;16.30;11.68;;;7.80;99.90;;;;;;5046319;28;20048;-46
2023/04/18 06:44:47;;;;;;;20.42;12.80;;;7.90;99.90;;;;;;5043765;28;20060;-46
2023/04/18 06:47:15;;;;;;;13.90;9.48;;;8.00;99.90;;;;;;5046260;28;20052;-46
2023/04/18 06:49:42;;;;;;;14.50;10.15;;;8.10;99.90;;;;;;5045460;28;20065;-46
2023/04/18 06:52:10;;;;;;;15.68;12.25;;;8.20;99.90;;;;;;5041610;28;20052;-46
2023/04/18 06:54:37;;;;;;;20.67;12.32;;;8.20;99.90;;;;;;5040806;28;20041;-46
2023/04/18 06:57:05;;;;;;;19.02;12.80;;;8.20;99.90;;;;;;5042299;28;20049;-46
2023/04/18 06:59:34;;;;;;;15.23;10.95;;;8.20;99.90;;;;;;5044906;28;20057;-46
2023/04/18 07:02:02;;;;;;;14.82;9.73;;;8.20;99.90;;;;;;5045198;28;20052;-46
2023/04/18 07:04:29;;;;;;;17.58;12.38;;;8.10;99.90;;;;;;5042073;28;20049;-46
2023/04/18 07:06:57;;;;;;;14.98;10.05;;;8.10;99.90;;;;;;5042526;28;20049;-46
2023/04/18 07:09:24;;;;;;;17.55;11.68;;;8.20;99.90;;;;;;5043975;28;20064;-46
2023/04/18 07:11:52;;;;;;;17.73;11.57;;;8.30;99.90;;;;;;5043047;28;20061;-46
2023/04/18 07:14:22;;;;;;;17.85;10.63;;;8.40;99.90;;;;;;5042793;28;20405;-46
2023/04/18 07:16:50;;;;;;;12.40;8.55;;;8.50;99.90;;;;;;5042813;28;20334;-46
2023/04/18 07:19:17;;;;;;;9.45;7.10;;;8.60;99.90;;;;;;5035136;28;20072;-46
2023/04/18 07:21:45;;;;;;;15.65;11.80;;;8.50;99.90;;;;;;5042905;28;20080;-46
2023/04/18 07:24:13;;;;;;;17.60;13.90;;;8.60;99.90;;;;;;5040845;28;20056;-47
2023/04/18 07:26:41;;;;;;;12.77;8.65;;;8.70;99.90;;;;;;5042109;28;20380;-46
2023/04/18 07:29:08;;;;;;;12.18;10.38;;;8.70;99.90;;;;;;5043064;28;20254;-47
2023/04/18 07:31:36;;;;;;;15.85;11.00;;;8.90;99.90;;;;;;5042430;28;20064;-47
2023/04/18 07:34:03;;;;;;;15.63;11.38;;;8.90;99.90;;;;;;5042294;28;20056;-47
2023/04/18 07:36:31;;;;;;;11.27;9.13;;;8.80;99.90;;;;;;5042683;28;20063;-47
2023/04/18 07:39:00;;;;;;;15.13;10.93;;;8.80;99.90;;;;;;5042061;28;20044;-47
2023/04/18 07:41:27;;;;;;;13.48;10.20;;;8.60;99.90;;;;;;5042944;28;20060;-47
2023/04/18 07:43:55;;;;;;;19.73;10.10;;;8.50;99.90;;;;;;5039741;28;20053;-47
2023/04/18 07:46:22;;;;;;;12.00;9.63;;;8.50;99.90;;;;;;5041338;28;20057;-46
2023/04/18 07:48:50;;;;;;;11.48;8.60;;;8.50;99.90;;;;;;5039380;28;20484;-37
2023/04/18 07:51:17;;;;;;;25.40;11.38;;;8.60;99.90;;;;;;5039974;28;20465;-37
2023/04/18 07:53:45;;;;;;;21.70;8.95;;;8.70;99.90;;;;;;5041377;28;20052;-37
2023/04/18 07:56:13;;;;;;;16.08;11.60;;;8.80;99.90;;;;;;5034652;28;20041;-37
2023/04/18 07:58:40;;;;;;;14.32;8.52;;;8.70;99.90;;;;;;5042128;28;20048;-38
2023/04/18 08:01:12;;;;;;;16.23;10.85;;;8.60;99.90;;;;;;5041736;28;20046;-37
2023/04/18 08:03:40;;;;;;;17.42;9.93;;;8.50;99.90;;;;;;5041325;28;20500;-37
2023/04/18 08:06:08;;;;;;;17.70;11.73;;;8.50;99.90;;;;;;5041142;28;20064;-37
2023/04/18 08:08:36;;;;;;;12.90;9.52;;;8.70;99.90;;;;;;5035524;28;20060;-37
2023/04/18 08:11:04;;;;;;;15.93;10.57;;;8.90;99.90;;;;;;5040953;28;20294;-37
2023/04/18 08:13:31;;;;;;;16.90;10.65;;;9.30;99.90;;;;;;5041793;28;20325;-38
2023/04/18 08:15:59;;;;;;;14.73;9.02;;;9.60;99.90;;;;;;5041405;28;20057;-37
2023/04/18 08:18:26;;;;;;;12.63;9.23;;;10.30;99.90;;;;;;5040348;28;20052;-37
2023/04/18 08:20:54;;;;;;;11.48;9.55;;;10.60;99.90;;;;;;5040799;28;20067;-37
2023/04/18 08:23:21;;;;;;;10.13;8.38;;;10.50;99.90;;;;;;5041985;28;20055;-37
2023/04/18 08:25:49;;;;;;;12.13;9.85;;;10.00;99.90;;;;;;5041284;28;20060;-37
2023/04/18 08:28:17;;;;;;;12.45;9.18;;;10.00;99.90;;;;;;5041710;28;20040;-37
2023/04/18 08:30:47;;;;;;;12.65;6.68;;;9.90;99.90;;;;;;5041656;28;20052;-36
2023/04/18 08:33:15;;;;;;;14.57;10.30;;;9.70;99.90;;;;;;5040309;28;20052;-37
2023/04/18 08:35:43;;;;;;;15.63;9.40;;;9.70;99.90;;;;;;5039628;28;20433;-37
2023/04/18 08:38:10;;;;;;;11.43;9.00;;;9.40;99.90;;;;;;5040671;28;20085;-37
2023/04/18 08:40:38;;;;;;;14.15;9.95;;;9.30;99.90;;;;;;5041380;28;20051;-37
2023/04/18 08:43:08;;;;;;;16.05;10.05;;;9.20;99.90;;;;;;5040842;28;20033;-36
2023/04/18 08:45:35;;;;;;;10.55;8.52;;;9.10;99.90;;;;;;5041620;28;20395;-36
2023/04/18 08:48:03;;;;;;;15.27;9.52;;;9.00;99.90;;;;;;5048267;28;20060;-37
2023/04/18 08:50:31;;;;;;;11.07;8.52;;;8.90;99.90;;;;;;5040344;28;20045;-37
2023/04/18 08:53:02;;;;;;;15.93;9.38;;;9.10;99.90;;;;;;5040645;28;20068;-37
2023/04/18 08:55:32;;;;;;;15.63;9.93;;;9.10;99.90;;;;;;5041422;28;20058;-37
2023/04/18 08:58:00;;;;;;;16.77;9.70;;;9.20;99.90;;;;;;5041733;28;20068;-37
2023/04/18 09:00:29;;;;;;;14.77;10.98;;;9.20;99.90;;;;;;5041554;28;20064;-37
2023/04/18 09:02:57;;;;;;;13.68;8.82;;;9.20;99.90;;;;;;5040447;28;20033;-37
2023/04/18 09:05:26;;;;;;;10.85;7.93;;;9.20;99.90;;;;;;5041013;28;20064;-38
2023/04/18 09:07:55;;;;;;;16.65;10.57;;;9.30;99.90;;;;;;5041335;28;20057;-36
2023/04/18 09:10:27;;;;;;;9.57;7.63;;;9.30;99.90;;;;;;5038513;28;20056;-37
2023/04/18 09:12:56;;;;;;;11.75;9.07;;;9.40;99.90;;;;;;5040870;28;20057;-37
2023/04/18 09:15:26;;;;;;;12.27;9.70;;;9.50;99.90;;;;;;5040234;28;20056;-37
2023/04/18 09:17:56;;;;;;;12.13;10.80;;;9.60;99.90;;;;;;5041024;28;20049;-37
2023/04/18 09:20:52;;;;;;;17.40;10.73;;;9.70;99.90;;;;;;5038700;28;20421;-37
2023/04/18 09:23:24;;;;;;;13.52;8.85;;;9.70;99.90;;;;;;5042867;28;20041;-37
2023/04/18 09:25:53;;;;;;;12.98;9.88;;;9.90;99.90;;;;;;5044381;28;20059;-37
2023/04/18 09:28:23;;;;;;;12.80;9.52;;;9.80;99.90;;;;;;5045200;28;20378;-37
2023/04/18 09:30:51;;;;;;;14.65;9.73;;;9.80;99.90;;;;;;5041222;28;20080;-37
2023/04/18 09:33:27;;;;;;;12.60;9.85;;;9.80;99.90;;;;;;5045153;28;20063;-36
2023/04/18 09:35:56;;;;;;;13.90;8.48;;;9.70;99.90;;;;;;5040773;28;20049;-36
2023/04/18 09:38:40;;;;;;;15.77;9.20;;;9.70;99.90;;;;;;5044404;28;20049;-36
2023/04/18 09:41:09;;;;;;;13.35;9.13;;;9.80;99.90;;;;;;5045098;28;20533;-36
2023/04/18 09:43:37;;;;;;;11.50;7.00;;;9.80;99.90;;;;;;5044221;28;20067;-37
2023/04/18 09:46:06;;;;;;;8.88;7.35;;;9.70;99.90;;;;;;5044804;28;20505;-37
2023/04/18 09:48:34;;;;;;;12.07;8.63;;;9.70;99.90;;;;;;5044979;28;20057;-37
2023/04/18 09:51:07;;;;;;;15.90;11.20;;;9.70;99.90;;;;;;5043353;28;20585;-37
2023/04/18 09:53:38;;;;;;;10.50;7.32;;;9.60;99.90;;;;;;5045373;28;20057;-37
2023/04/18 09:56:10;;;;;;;12.38;8.85;;;9.50;99.90;;;;;;5044642;28;20067;-37
2023/04/18 09:58:41;;;;;;;11.73;7.45;;;9.40;99.90;;;;;;5044800;28;20048;-37
2023/04/18 10:01:09;;;;;;;11.93;8.45;;;9.40;99.90;;;;;;5044032;28;20383;-36
2023/04/18 10:03:43;;;;;;;12.82;9.35;;;9.40;99.90;;;;;;5044635;28;20056;-37
2023/04/18 10:06:14;;;;;;;13.88;9.10;;;9.40;99.90;;;;;;5043893;28;20088;-37
2023/04/18 10:08:43;;;;;;;;;;;9.50;99.90;;;;;;5044661;28;20425;-37
2023/04/18 10:11:11;;;;;;;8.10;5.85;;;9.50;99.90;;;;;;5044093;28;19935;-37
2023/04/18 10:13:43;;;;;;;9.50;7.95;;;9.60;99.90;;;;;;5045009;28;20064;-37
2023/04/18 10:16:11;;;;;;;13.77;9.13;;;9.70;99.90;;;;;;5042952;28;20515;-37
2023/04/18 10:18:41;;;;;;;9.82;6.63;;;9.90;99.90;;;;;;5043946;28;20524;-37
2023/04/18 10:21:08;;;;;;;9.73;6.50;;;9.90;99.90;;;;;;5041003;28;20064;-38
2023/04/18 10:23:40;;;;;;;6.63;5.93;;;10.00;99.90;;;;;;5043740;28;20052;-38
2023/04/18 10:26:09;;;;;;;8.82;7.18;;;9.90;99.90;;;;;;5044011;28;20053;-39
2023/04/18 10:28:53;;;;;;;12.60;8.35;;;9.90;99.90;;;;;;5044501;28;20053;-39
2023/04/18 10:31:23;;;;;;;12.45;8.27;;;9.90;99.90;;;;;;5037134;28;20051;-37
2023/04/18 10:33:58;;;;;;;17.13;9.38;;;10.00;99.90;;;;;;5041947;28;20057;-37
2023/04/18 10:36:29;;;;;;;13.40;8.32;;;10.10;99.90;;;;;;5041832;28;20518;-40
2023/04/18 10:39:04;;;;;;;12.38;7.55;;;10.30;99.90;;;;;;5043774;28;20045;-38
2023/04/18 10:41:33;;;;;;;11.07;7.90;;;10.30;99.90;;;;;;5039311;28;20048;-39
2023/04/18 10:46:37;;;;;;;9.75;7.40;;;10.10;99.90;;;;;;5042508;28;20053;-37
2023/04/18 10:49:17;;;;;;;7.05;6.43;;;9.80;99.90;;;;;;5040671;28;20497;-40
2023/04/18 10:51:46;;;;;;;11.35;6.57;;;9.60;99.90;;;;;;5042546;28;20057;-37
2023/04/18 10:54:45;;;;;;;10.50;8.40;;;9.40;99.90;;;;;;5042598;28;20053;-37
2023/04/18 10:57:14;;;;;;;10.88;6.35;;;9.40;99.90;;;;;;5040873;28;20522;-36
2023/04/18 10:59:43;;;;;;;14.60;9.52;;;9.50;99.90;;;;;;5042267;28;20056;-37
2023/04/18 11:02:31;;;;;;;11.57;9.73;;;9.70;99.90;;;;;;5042503;28;20055;-37
2023/04/18 11:05:00;;;;;;;11.50;8.55;;;9.90;99.90;;;;;;5042647;28;20057;-38
2023/04/18 11:07:35;;;;;;;13.52;8.27;;;10.00;99.90;;;;;;5042881;28;20060;-39
2023/04/18 11:10:07;;;;;;;14.57;9.85;;;9.90;99.90;;;;;;5039861;28;20049;-37
2023/04/18 11:12:37;;;;;;;9.00;8.10;;;9.90;99.90;;;;;;5041013;28;20053;-37
2023/04/18 11:15:13;;;;;;;13.88;8.70;;;9.70;99.90;;;;;;5042227;28;20429;-37
2023/04/18 11:17:41;;;;;;;11.20;7.63;;;9.80;99.90;;;;;;5040830;28;20056;-37
2023/04/18 11:20:12;;;;;;;9.80;7.90;;;9.70;99.90;;;;;;5034793;28;20053;-38
2023/04/18 11:22:51;;;;;;;12.43;8.82;;;9.60;99.90;;;;;;5040023;28;20049;-38
2023/04/18 11:25:22;;;;;;;12.88;7.75;;;9.50;99.90;;;;;;5035337;28;20053;-38
2023/04/18 11:27:50;;;;;;;;;;;9.50;99.90;;;;;;5044508;28;20052;-37
2023/04/18 11:30:18;;;;;;;9.70;8.00;;;9.60;99.90;;;;;;5043500;28;19925;-37
2023/04/18 11:32:45;;;;;;;12.25;7.80;;;9.60;99.90;;;;;;5041602;28;20063;-38
2023/04/18 11:35:14;;;;;;;9.48;8.13;;;9.50;99.90;;;;;;5036474;28;20389;-37
2023/04/18 11:37:44;;;;;;;7.45;6.30;;;9.60;99.90;;;;;;5041231;28;20064;-37
2023/04/18 11:40:13;;;;;;;10.85;7.75;;;9.60;99.90;;;;;;5038656;28;20057;-38
2023/04/18 11:42:41;;;;;;;13.27;9.35;;;9.80;99.90;;;;;;5042529;28;20067;-37
2023/04/18 11:45:13;;;;;;;12.10;8.50;;;9.90;99.90;;;;;;5042933;28;20520;-37
2023/04/18 11:47:42;;;;;;;10.00;8.07;;;10.00;99.90;;;;;;5041380;28;20048;-37
2023/04/18 11:50:12;;;;;;;14.93;7.75;;;10.10;99.90;;;;;;5039608;28;20503;-37
2023/04/18 11:52:41;;;;;;;15.32;7.68;;;10.30;99.90;;;;;;5043597;28;20060;-38
2023/04/18 11:55:11;;;;;;;11.70;8.85;;;10.40;99.90;;;;;;5042423;28;20064;-37
2023/04/18 11:57:39;;;;;;;8.32;6.25;;;10.20;99.90;;;;;;5043002;28;20076;-38
2023/04/18 12:00:11;;;;;;;8.63;7.65;;;10.20;99.90;;;;;;5042209;28;20045;-37
2023/04/18 12:02:42;;;;;;;17.85;9.82;;;10.30;99.90;;;;;;5036344;28;20053;-36
2023/04/18 12:05:13;;;;;;;18.52;8.98;;;10.40;99.90;;;;;;5041930;28;20053;-37
2023/04/18 12:07:43;;;;;;;9.23;7.05;;;10.50;99.90;;;;;;5042751;28;20053;-38
2023/04/18 12:10:28;;;;;;;10.70;7.53;;;10.60;99.90;;;;;;5042669;28;20258;-37
2023/04/18 12:12:57;;;;;;;8.43;5.35;;;10.70;99.90;;;;;;5042647;28;20076;-37
2023/04/18 12:15:27;;;;;;;7.05;5.93;;;10.60;99.90;;;;;;5042158;28;20053;-38
2023/04/18 12:17:59;;;;;;;11.15;7.40;;;10.40;99.90;;;;;;5043434;28;20554;-38
2023/04/18 12:20:35;;;;;;;11.70;8.70;;;10.40;99.90;;;;;;5035468;28;20284;-37
2023/04/18 12:23:03;;;;;;;12.18;7.20;;;10.30;99.90;;;;;;5042319;28;20041;-37
2023/04/18 12:25:32;;;;;;;11.50;7.28;;;10.20;99.90;;;;;;5038003;28;20057;-37
2023/04/18 12:28:02;;;;;;;11.27;7.78;;;10.20;99.90;;;;;;5042229;28;20432;-37
2023/04/18 12:30:33;;;;;;;8.88;6.43;;;10.10;99.90;;;;;;5040653;28;20036;-37
2023/04/18 12:33:04;;;;;;;8.52;7.10;;;9.90;99.90;;;;;;5042739;28;20500;-37
2023/04/18 12:35:32;;;;;;;10.02;7.82;;;9.80;99.90;;;;;;5039264;28;20045;-37
2023/04/18 12:38:00;;;;;;;9.48;6.95;;;9.70;99.90;;;;;;5041893;28;20068;-37
2023/04/18 12:40:28;;;;;;;12.57;6.65;;;9.60;99.90;;;;;;5040145;28;20622;-39
2023/04/18 12:42:56;;;;;;;9.20;8.13;;;9.60;99.90;;;;;;5041504;28;20053;-37
2023/04/18 12:45:24;;;;;;;9.35;7.43;;;9.60;99.90;;;;;;5041214;28;20618;-37
2023/04/18 12:47:52;;;;;;;8.50;6.20;;;9.70;99.90;;;;;;5042317;28;20509;-38
2023/04/18 12:50:22;;;;;;;11.07;7.10;;;9.60;99.90;;;;;;5040735;28;20441;-39
2023/04/18 12:52:52;;;;;;;8.63;7.28;;;9.60;99.90;;;;;;5043221;28;20417;-38
2023/04/18 12:55:21;;;;;;;7.93;6.40;;;9.50;99.90;;;;;;5040978;28;20049;-37
2023/04/18 12:57:53;;;;;;;9.00;7.28;;;9.60;99.90;;;;;;5041133;28;20057;-38
2023/04/18 13:00:29;;;;;;;8.63;6.32;;;9.50;99.90;;;;;;5041432;28;20471;-38